createdAt,value
2022-11-06T00:00:55.526Z,5.75
2022-11-06T00:01:55.589Z,5.74
2022-11-06T00:02:55.530Z,5.75
2022-11-06T00:03:55.594Z,5.70
2022-11-06T00:04:55.461Z,5.75
2022-11-06T00:05:55.464Z,5.77
2022-11-06T00:06:55.450Z,5.65
2022-11-06T00:07:55.440Z,5.69
2022-11-06T00:08:55.513Z,5.59
2022-11-06T00:09:55.424Z,5.48
2022-11-06T00:10:55.409Z,5.62
2022-11-06T00:11:55.437Z,5.59
2022-11-06T00:12:55.433Z,5.70
2022-11-06T00:13:55.356Z,5.67
2022-11-06T00:14:55.359Z,5.69
2022-11-06T00:15:55.365Z,5.62
2022-11-06T00:16:55.377Z,5.65
2022-11-06T00:17:55.317Z,5.62
2022-11-06T00:18:55.329Z,5.44
2022-11-06T00:19:55.295Z,5.52
2022-11-06T00:20:55.342Z,5.44
2022-11-06T00:21:55.314Z,5.44
2022-11-06T00:22:55.256Z,5.45
2022-11-06T00:23:55.271Z,5.37
2022-11-06T00:24:55.281Z,5.30
2022-11-06T00:25:55.310Z,5.24
2022-11-06T00:26:55.269Z,5.23
2022-11-06T00:27:55.345Z,5.14
2022-11-06T00:28:55.225Z,5.24
2022-11-06T00:29:55.200Z,5.24
2022-11-06T00:30:55.247Z,5.17
2022-11-06T00:31:55.194Z,5.23
2022-11-06T00:32:55.177Z,5.09
2022-11-06T00:33:55.158Z,5.12
2022-11-06T00:34:55.150Z,5.12
2022-11-06T00:35:55.155Z,5.06
2022-11-06T00:36:55.164Z,5.05
2022-11-06T00:37:55.128Z,5.05
2022-11-06T00:38:55.170Z,5.20
2022-11-06T00:39:55.096Z,5.19
2022-11-06T00:40:55.130Z,5.15
2022-11-06T00:41:55.081Z,5.11
2022-11-06T00:42:55.049Z,5.08
2022-11-06T00:43:55.062Z,5.06
2022-11-06T00:44:55.031Z,5.12
2022-11-06T00:45:55.043Z,5.12
2022-11-06T00:46:55.081Z,5.09
2022-11-06T00:47:55.058Z,5.09
2022-11-06T00:48:54.998Z,5.04
2022-11-06T00:49:54.988Z,5.22
2022-11-06T00:50:54.969Z,5.24
2022-11-06T00:51:54.965Z,5.11
2022-11-06T00:52:54.970Z,5.12
2022-11-06T00:53:54.937Z,5.14
2022-11-06T00:54:54.920Z,5.22
2022-11-06T00:55:54.936Z,5.22
2022-11-06T00:56:54.934Z,5.37
2022-11-06T00:57:54.921Z,5.30
2022-11-06T00:58:54.910Z,5.41
2022-11-06T00:59:54.999Z,5.33
2022-11-06T01:00:54.883Z,5.32
2022-11-06T01:01:55.022Z,5.33
2022-11-06T01:02:54.999Z,5.32
2022-11-06T01:03:54.833Z,5.37
2022-11-06T01:04:54.830Z,5.30
2022-11-06T01:05:54.872Z,5.41
2022-11-06T01:06:54.848Z,5.41
2022-11-06T01:07:54.823Z,5.33
2022-11-06T01:08:54.774Z,5.41
2022-11-06T01:09:54.759Z,5.41
2022-11-06T01:10:54.766Z,5.42
2022-11-06T01:12:55.767Z,5.33
2022-11-06T01:13:54.730Z,5.30
2022-11-06T01:14:54.717Z,5.33
2022-11-06T01:15:54.743Z,5.35
2022-11-06T01:16:54.754Z,5.38
2022-11-06T01:17:54.720Z,5.30
2022-11-06T01:18:54.677Z,5.30
2022-11-06T01:19:54.676Z,5.32
2022-11-06T01:20:54.651Z,5.37
2022-11-06T01:21:54.654Z,5.29
2022-11-06T01:22:54.652Z,5.32
2022-11-06T01:23:54.617Z,5.27
2022-11-06T01:24:54.689Z,5.19
2022-11-06T01:25:54.591Z,5.19
2022-11-06T01:27:20.329Z,5.22
2022-11-06T01:27:55.653Z,5.12
2022-11-06T01:28:54.608Z,5.22
2022-11-06T01:29:54.558Z,5.20
2022-11-06T01:30:54.545Z,5.20
2022-11-06T01:31:54.607Z,5.27
2022-11-06T01:32:54.530Z,5.30
2022-11-06T01:33:54.530Z,5.32
2022-11-06T01:34:54.523Z,5.27
2022-11-06T01:35:54.514Z,5.29
2022-11-06T01:36:54.504Z,5.24
2022-11-06T01:37:54.521Z,5.22
2022-11-06T01:38:54.489Z,5.26
2022-11-06T01:39:54.448Z,5.23
2022-11-06T01:40:54.459Z,5.22
2022-11-06T01:41:54.476Z,5.19
2022-11-06T01:42:54.475Z,5.15
2022-11-06T01:43:54.463Z,5.11
2022-11-06T01:44:54.400Z,5.02
2022-11-06T01:45:54.407Z,4.94
2022-11-06T01:46:54.372Z,4.90
2022-11-06T01:47:54.396Z,4.84
2022-11-06T01:48:54.370Z,4.79
2022-11-06T01:49:54.393Z,4.83
2022-11-06T01:50:54.361Z,4.77
2022-11-06T01:51:54.325Z,4.72
2022-11-06T01:52:54.332Z,4.71
2022-11-06T01:53:54.394Z,4.83
2022-11-06T01:54:54.291Z,4.79
2022-11-06T01:55:54.302Z,4.86
2022-11-06T01:56:54.273Z,4.80
2022-11-06T01:57:54.312Z,4.75
2022-11-06T01:58:54.247Z,4.79
2022-11-06T01:59:54.278Z,4.74
2022-11-06T02:00:54.357Z,4.75
2022-11-06T02:01:54.343Z,4.71
2022-11-06T02:02:54.427Z,4.77
2022-11-06T02:03:54.206Z,4.80
2022-11-06T02:04:54.227Z,4.86
2022-11-06T02:05:54.165Z,4.77
2022-11-06T02:06:54.163Z,4.79
2022-11-06T02:07:54.239Z,4.75
2022-11-06T02:08:54.132Z,4.80
2022-11-06T02:09:54.160Z,4.84
2022-11-06T02:10:54.113Z,4.86
2022-11-06T02:11:54.110Z,4.84
2022-11-06T02:12:54.120Z,4.77
2022-11-06T02:13:54.143Z,4.75
2022-11-06T02:14:54.083Z,4.67
2022-11-06T02:15:54.092Z,4.62
2022-11-06T02:16:54.089Z,4.62
2022-11-06T02:17:54.065Z,4.54
2022-11-06T02:18:54.034Z,4.51
2022-11-06T02:19:54.040Z,4.51
2022-11-06T02:20:54.013Z,4.38
2022-11-06T02:21:54.034Z,4.42
2022-11-06T02:22:53.991Z,4.46
2022-11-06T02:23:53.992Z,4.46
2022-11-06T02:24:53.975Z,4.49
2022-11-06T02:25:54.046Z,4.57
2022-11-06T02:26:54.230Z,4.67
2022-11-06T02:27:54.007Z,4.67
2022-11-06T02:28:53.932Z,4.61
2022-11-06T02:29:53.928Z,4.57
2022-11-06T02:30:53.950Z,4.61
2022-11-06T02:31:53.912Z,4.61
2022-11-06T02:32:53.952Z,4.59
2022-11-06T02:33:53.887Z,4.64
2022-11-06T02:34:53.891Z,4.64
2022-11-06T02:35:53.869Z,4.69
2022-11-06T02:36:53.895Z,4.64
2022-11-06T02:37:53.947Z,4.61
2022-11-06T02:38:53.826Z,4.54
2022-11-06T02:39:53.836Z,4.62
2022-11-06T02:40:53.816Z,4.61
2022-11-06T02:41:53.819Z,4.64
2022-11-06T02:42:53.798Z,4.57
2022-11-06T02:43:53.797Z,4.64
2022-11-06T02:44:53.755Z,4.53
2022-11-06T02:45:53.778Z,4.46
2022-11-06T02:46:53.761Z,4.47
2022-11-06T02:47:53.846Z,4.49
2022-11-06T02:48:53.733Z,4.59
2022-11-06T02:49:53.734Z,4.64
2022-11-06T02:50:53.699Z,4.62
2022-11-06T02:51:53.828Z,4.67
2022-11-06T02:52:53.704Z,4.67
2022-11-06T02:53:53.715Z,4.69
2022-11-06T02:54:53.685Z,4.75
2022-11-06T02:55:53.647Z,4.75
2022-11-06T02:56:53.639Z,4.74
2022-11-06T02:57:53.712Z,4.77
2022-11-06T02:58:53.675Z,4.75
2022-11-06T02:59:53.611Z,4.84
2022-11-06T03:00:53.629Z,4.74
2022-11-06T03:01:53.731Z,4.80
2022-11-06T03:02:53.787Z,4.86
2022-11-06T03:03:53.606Z,4.80
2022-11-06T03:04:53.594Z,4.83
2022-11-06T03:05:53.636Z,4.75
2022-11-06T03:06:53.543Z,4.83
2022-11-06T03:07:53.581Z,4.72
2022-11-06T03:08:53.549Z,4.68
2022-11-06T03:09:53.538Z,4.72
2022-11-06T03:10:53.540Z,4.69
2022-11-06T03:11:53.527Z,4.79
2022-11-06T03:12:53.514Z,4.65
2022-11-06T03:13:53.466Z,4.67
2022-11-06T03:14:53.447Z,4.68
2022-11-06T03:15:53.741Z,4.68
2022-11-06T03:16:53.496Z,4.61
2022-11-06T03:17:53.444Z,4.64
2022-11-06T03:18:53.400Z,4.64
2022-11-06T03:19:53.387Z,4.57
2022-11-06T03:20:53.430Z,4.64
2022-11-06T03:21:53.524Z,4.65
2022-11-06T03:22:53.374Z,4.62
2022-11-06T03:23:53.454Z,4.61
2022-11-06T03:24:53.377Z,4.59
2022-11-06T03:25:53.328Z,4.57
2022-11-06T03:26:53.380Z,4.65
2022-11-06T03:27:53.361Z,4.62
2022-11-06T03:28:53.292Z,4.65
2022-11-06T03:29:53.330Z,4.62
2022-11-06T03:30:53.274Z,4.64
2022-11-06T03:31:53.314Z,4.57
2022-11-06T03:32:53.278Z,4.59
2022-11-06T03:33:53.256Z,4.62
2022-11-06T03:34:53.225Z,4.53
2022-11-06T03:35:53.254Z,4.59
2022-11-06T03:36:53.232Z,4.57
2022-11-06T03:37:53.199Z,4.57
2022-11-06T03:38:53.201Z,4.61
2022-11-06T03:39:53.271Z,4.56
2022-11-06T03:40:53.186Z,4.62
2022-11-06T03:41:53.222Z,4.59
2022-11-06T03:42:53.146Z,4.53
2022-11-06T03:43:53.127Z,4.53
2022-11-06T03:44:53.169Z,4.50
2022-11-06T03:45:53.161Z,4.43
2022-11-06T03:46:53.275Z,4.51
2022-11-06T03:47:53.102Z,4.47
2022-11-06T03:48:53.315Z,4.44
2022-11-06T03:49:53.081Z,4.47
2022-11-06T03:50:53.083Z,4.39
2022-11-06T03:51:53.055Z,4.50
2022-11-06T03:52:53.328Z,4.50
2022-11-06T03:53:53.060Z,4.49
2022-11-06T03:54:53.024Z,4.53
2022-11-06T03:55:53.102Z,4.50
2022-11-06T03:56:52.998Z,4.46
2022-11-06T03:57:52.980Z,4.47
2022-11-06T03:58:53.037Z,4.51
2022-11-06T03:59:52.959Z,4.49
2022-11-06T04:00:53.041Z,4.50
2022-11-06T04:01:53.068Z,4.47
2022-11-06T04:02:53.073Z,4.53
2022-11-06T04:03:52.983Z,4.53
2022-11-06T04:04:52.952Z,4.51
2022-11-06T04:05:52.937Z,4.61
2022-11-06T04:06:52.899Z,4.50
2022-11-06T04:07:52.902Z,4.57
2022-11-06T04:08:52.876Z,4.59
2022-11-06T04:09:52.882Z,4.59
2022-11-06T04:10:52.844Z,4.50
2022-11-06T04:11:52.855Z,4.50
2022-11-06T04:12:52.903Z,4.53
2022-11-06T04:13:52.857Z,4.53
2022-11-06T04:14:52.801Z,4.50
2022-11-06T04:15:52.804Z,4.44
2022-11-06T04:16:52.838Z,4.50
2022-11-06T04:17:52.879Z,4.47
2022-11-06T04:18:52.797Z,4.49
2022-11-06T04:19:52.800Z,4.46
2022-11-06T04:20:52.769Z,4.44
2022-11-06T04:21:52.734Z,4.53
2022-11-06T04:22:52.717Z,4.44
2022-11-06T04:23:52.749Z,4.50
2022-11-06T04:24:52.753Z,4.44
2022-11-06T04:25:52.723Z,4.50
2022-11-06T04:26:52.770Z,4.46
2022-11-06T04:27:52.685Z,4.47
2022-11-06T04:28:52.674Z,4.47
2022-11-06T04:29:52.680Z,4.34
2022-11-06T04:30:52.639Z,4.35
2022-11-06T04:31:52.674Z,4.36
2022-11-06T04:32:58.679Z,4.34
2022-11-06T04:33:53.759Z,4.32
2022-11-06T04:34:52.605Z,4.32
2022-11-06T04:35:52.672Z,4.25
2022-11-06T04:36:52.583Z,4.16
2022-11-06T04:37:52.576Z,4.13
2022-11-06T04:38:52.593Z,4.13
2022-11-06T04:39:52.658Z,4.13
2022-11-06T04:40:52.584Z,4.16
2022-11-06T04:41:52.569Z,4.14
2022-11-06T04:42:52.517Z,4.14
2022-11-06T04:43:52.513Z,4.08
2022-11-06T04:44:52.495Z,3.98
2022-11-06T04:45:52.510Z,3.93
2022-11-06T04:46:52.522Z,3.98
2022-11-06T04:47:52.478Z,4.13
2022-11-06T04:48:52.473Z,4.04
2022-11-06T04:49:52.467Z,4.02
2022-11-06T04:50:52.437Z,3.99
2022-11-06T04:51:52.432Z,4.07
2022-11-06T04:52:52.417Z,4.13
2022-11-06T04:53:52.470Z,4.04
2022-11-06T04:54:52.445Z,4.06
2022-11-06T04:55:52.417Z,4.18
2022-11-06T04:56:52.438Z,4.24
2022-11-06T04:57:52.426Z,4.11
2022-11-06T04:58:52.353Z,4.17
2022-11-06T04:59:52.423Z,4.14
2022-11-06T05:00:52.394Z,4.16
2022-11-06T05:01:52.370Z,4.14
2022-11-06T05:02:52.347Z,4.18
2022-11-06T05:03:52.323Z,4.24
2022-11-06T05:04:52.318Z,4.21
2022-11-06T05:05:52.278Z,4.17
2022-11-06T05:06:52.301Z,4.26
2022-11-06T05:07:52.280Z,4.24
2022-11-06T05:08:52.230Z,4.28
2022-11-06T05:09:52.257Z,4.24
2022-11-06T05:10:52.215Z,4.28
2022-11-06T05:11:52.296Z,4.24
2022-11-06T05:12:52.240Z,4.25
2022-11-06T05:13:52.208Z,4.18
2022-11-06T05:14:52.198Z,4.28
2022-11-06T05:15:52.193Z,4.16
2022-11-06T05:16:52.206Z,4.24
2022-11-06T05:17:52.140Z,4.20
2022-11-06T05:18:52.146Z,4.13
2022-11-06T05:19:52.200Z,3.95
2022-11-06T05:20:52.109Z,3.78
2022-11-06T05:21:52.120Z,3.64
2022-11-06T05:22:52.105Z,3.42
2022-11-06T05:23:52.079Z,3.37
2022-11-06T05:24:52.155Z,3.35
2022-11-06T05:25:52.091Z,3.19
2022-11-06T05:26:57.828Z,3.08
2022-11-06T05:27:53.037Z,2.98
2022-11-06T05:28:52.046Z,2.92
2022-11-06T05:29:52.102Z,2.79
2022-11-06T05:30:52.118Z,2.74
2022-11-06T05:31:52.010Z,2.56
2022-11-06T05:32:52.039Z,2.41
2022-11-06T05:33:52.010Z,2.36
2022-11-06T05:34:52.055Z,2.30
2022-11-06T05:35:51.996Z,2.12
2022-11-06T05:36:51.985Z,2.04
2022-11-06T05:37:52.052Z,1.93
2022-11-06T05:38:51.926Z,1.92
2022-11-06T05:39:51.923Z,1.82
2022-11-06T05:40:51.899Z,1.75
2022-11-06T05:41:51.949Z,1.75
2022-11-06T05:42:51.938Z,1.82
2022-11-06T05:43:51.901Z,1.72
2022-11-06T05:44:51.921Z,1.67
2022-11-06T05:45:51.875Z,1.63
2022-11-06T05:46:51.835Z,1.53
2022-11-06T05:47:51.955Z,1.49
2022-11-06T05:48:51.811Z,1.49
2022-11-06T05:49:51.980Z,1.36
2022-11-06T05:50:51.814Z,1.36
2022-11-06T05:51:51.800Z,1.26
2022-11-06T05:52:51.972Z,1.26
2022-11-06T05:53:51.796Z,1.28
2022-11-06T05:54:51.830Z,1.24
2022-11-06T05:55:52.013Z,1.25
2022-11-06T05:56:51.823Z,1.21
2022-11-06T05:57:51.799Z,1.29
2022-11-06T05:58:51.723Z,1.28
2022-11-06T05:59:51.708Z,1.26
2022-11-06T06:00:51.705Z,1.24
2022-11-06T06:01:51.808Z,1.20
2022-11-06T06:02:51.739Z,1.08
2022-11-06T06:03:51.772Z,1.24
2022-11-06T06:04:51.748Z,1.11
2022-11-06T06:05:51.675Z,1.11
2022-11-06T06:06:51.712Z,1.10
2022-11-06T06:07:51.694Z,1.11
2022-11-06T06:08:51.677Z,1.10
2022-11-06T06:09:51.735Z,1.17
2022-11-06T06:10:51.578Z,1.20
2022-11-06T06:11:51.588Z,1.18
2022-11-06T06:12:51.715Z,1.31
2022-11-06T06:13:51.638Z,1.39
2022-11-06T06:14:51.750Z,1.31
2022-11-06T06:15:51.562Z,1.28
2022-11-06T06:16:51.622Z,1.28
2022-11-06T06:17:51.536Z,1.53
2022-11-06T06:18:51.518Z,1.68
2022-11-06T06:19:51.503Z,1.53
2022-11-06T06:20:51.484Z,1.57
2022-11-06T06:21:51.487Z,1.54
2022-11-06T06:22:51.485Z,1.50
2022-11-06T06:23:51.453Z,1.52
2022-11-06T06:24:51.521Z,1.79
2022-11-06T06:25:51.571Z,1.88
2022-11-06T06:26:51.431Z,2.04
2022-11-06T06:27:51.419Z,2.29
2022-11-06T06:28:51.469Z,2.68
2022-11-06T06:29:51.438Z,2.71
2022-11-06T06:30:51.933Z,2.74
2022-11-06T06:31:51.388Z,2.86
2022-11-06T06:32:51.365Z,2.90
2022-11-06T06:33:51.509Z,2.90
2022-11-06T06:34:51.326Z,2.98
2022-11-06T06:35:51.349Z,2.99
2022-11-06T06:36:51.340Z,2.94
2022-11-06T06:37:51.371Z,3.10
2022-11-06T06:38:51.315Z,3.10
2022-11-06T06:39:51.308Z,3.07
2022-11-06T06:40:51.273Z,2.92
2022-11-06T06:41:51.283Z,3.05
2022-11-06T06:42:51.307Z,3.08
2022-11-06T06:43:51.364Z,3.20
2022-11-06T06:44:51.250Z,3.42
2022-11-06T06:45:51.244Z,3.52
2022-11-06T06:46:51.244Z,3.54
2022-11-06T06:47:51.237Z,3.62
2022-11-06T06:48:51.345Z,3.63
2022-11-06T06:49:51.187Z,3.81
2022-11-06T06:50:51.243Z,3.96
2022-11-06T06:51:51.174Z,3.86
2022-11-06T06:52:51.142Z,3.98
2022-11-06T06:53:51.241Z,3.99
2022-11-06T06:54:51.139Z,4.08
2022-11-06T06:55:51.109Z,4.13
2022-11-06T06:56:51.115Z,4.06
2022-11-06T06:57:51.106Z,4.18
2022-11-06T06:58:51.164Z,4.16
2022-11-06T06:59:51.074Z,4.17
2022-11-06T07:00:51.268Z,4.21
2022-11-06T07:01:51.221Z,4.34
2022-11-06T07:02:51.032Z,4.35
2022-11-06T07:03:51.037Z,4.34
2022-11-06T07:04:51.079Z,4.36
2022-11-06T07:05:51.033Z,4.42
2022-11-06T07:06:51.036Z,4.43
2022-11-06T07:07:51.020Z,4.53
2022-11-06T07:08:50.980Z,4.53
2022-11-06T07:09:50.968Z,4.61
2022-11-06T07:10:50.945Z,4.65
2022-11-06T07:11:50.988Z,4.71
2022-11-06T07:12:51.051Z,4.84
2022-11-06T07:13:50.970Z,5.22
2022-11-06T07:14:50.949Z,5.41
2022-11-06T07:15:50.939Z,5.95
2022-11-06T07:16:53.702Z,6.45
2022-11-06T07:17:50.973Z,7.19
2022-11-06T07:18:50.883Z,7.76
2022-11-06T07:19:50.882Z,8.67
2022-11-06T07:20:50.853Z,9.23
2022-11-06T07:21:50.848Z,9.58
2022-11-06T07:22:50.823Z,9.38
2022-11-06T07:23:50.853Z,8.97
2022-11-06T07:24:50.823Z,8.52
2022-11-06T07:25:50.827Z,8.34
2022-11-06T07:26:50.807Z,8.42
2022-11-06T07:27:50.798Z,8.68
2022-11-06T07:28:50.758Z,9.17
2022-11-06T07:29:50.747Z,9.44
2022-11-06T07:30:50.752Z,9.63
2022-11-06T07:31:50.782Z,9.86
2022-11-06T07:32:50.758Z,9.74
2022-11-06T07:33:57.490Z,9.91
2022-11-06T07:36:12.751Z,9.89
2022-11-06T07:36:50.715Z,9.10
2022-11-06T07:37:50.719Z,8.83
2022-11-06T07:38:50.733Z,8.58
2022-11-06T07:39:50.733Z,8.28
2022-11-06T07:40:50.647Z,8.07
2022-11-06T07:41:50.641Z,8.36
2022-11-06T07:42:57.559Z,8.55
2022-11-06T07:43:50.735Z,8.80
2022-11-06T07:44:57.730Z,9.20
2022-11-06T07:45:50.589Z,9.27
2022-11-06T07:46:50.675Z,8.98
2022-11-06T07:47:53.974Z,8.65
2022-11-06T07:48:51.707Z,8.55
2022-11-06T07:49:51.267Z,8.42
2022-11-06T07:50:50.570Z,8.43
2022-11-06T07:51:58.545Z,8.37
2022-11-06T07:52:50.512Z,8.76
2022-11-06T07:53:50.524Z,8.67
2022-11-06T07:54:50.487Z,8.58
2022-11-06T07:55:50.494Z,8.45
2022-11-06T07:56:50.558Z,8.13
2022-11-06T07:57:51.218Z,7.95
2022-11-06T07:58:50.572Z,7.52
2022-11-06T07:59:50.428Z,7.47
2022-11-06T08:00:50.623Z,7.91
2022-11-06T08:02:04.290Z,8.46
2022-11-06T08:02:50.409Z,8.76
2022-11-06T08:03:50.430Z,9.26
2022-11-06T08:04:50.406Z,9.12
2022-11-06T08:05:50.365Z,8.97
2022-11-06T08:06:50.421Z,8.49
2022-11-06T08:07:50.397Z,8.78
2022-11-06T08:08:54.827Z,8.83
2022-11-06T08:09:51.345Z,8.94
2022-11-06T08:10:50.309Z,8.82
2022-11-06T08:11:50.316Z,8.46
2022-11-06T08:12:50.285Z,8.29
2022-11-06T08:13:50.388Z,7.70
2022-11-06T08:14:50.314Z,7.47
2022-11-06T08:15:50.276Z,7.36
2022-11-06T08:16:50.263Z,7.12
2022-11-06T08:17:51.755Z,6.96
2022-11-06T08:18:52.386Z,7.14
2022-11-06T08:19:50.367Z,7.04
2022-11-06T08:20:50.218Z,7.14
2022-11-06T08:21:50.235Z,7.09
2022-11-06T08:22:50.205Z,7.09
2022-11-06T08:23:50.250Z,7.24
2022-11-06T08:24:50.783Z,7.34
2022-11-06T08:25:50.199Z,7.41
2022-11-06T08:26:53.203Z,7.50
2022-11-06T08:27:51.068Z,7.52
2022-11-06T08:30:20.266Z,7.39
2022-11-06T08:31:16.315Z,7.63
2022-11-06T08:32:14.272Z,7.89
2022-11-06T08:33:14.237Z,7.85
2022-11-06T08:34:14.209Z,7.91
2022-11-06T08:35:14.150Z,7.95
2022-11-06T08:36:14.134Z,8.10
2022-11-06T08:37:14.390Z,8.36
2022-11-06T08:38:16.478Z,8.63
2022-11-06T08:39:14.676Z,8.82
2022-11-06T08:40:14.815Z,9.12
2022-11-06T08:41:16.151Z,8.85
2022-11-06T08:42:14.277Z,8.88
2022-11-06T08:43:14.443Z,9.13
2022-11-06T08:44:14.047Z,9.26
2022-11-06T08:45:14.021Z,9.56
2022-11-06T08:46:14.162Z,9.99
2022-11-06T08:47:14.077Z,9.88
2022-11-06T08:48:17.285Z,9.62
2022-11-06T08:49:14.659Z,9.31
2022-11-06T08:50:23.585Z,9.41
2022-11-06T08:51:13.957Z,9.08
2022-11-06T08:52:14.004Z,9.45
2022-11-06T08:53:14.322Z,9.65
2022-11-06T08:54:14.024Z,9.58
2022-11-06T08:55:13.914Z,9.45
2022-11-06T08:56:13.948Z,9.16
2022-11-06T08:57:20.747Z,8.82
2022-11-06T08:58:25.525Z,8.63
2022-11-06T08:59:13.957Z,8.50
2022-11-06T09:00:13.951Z,8.24
2022-11-06T09:01:13.954Z,8.47
2022-11-06T09:02:13.901Z,8.29
2022-11-06T09:03:14.178Z,8.57
2022-11-06T09:04:13.875Z,8.63
2022-11-06T09:05:13.810Z,9.00
2022-11-06T09:06:20.721Z,9.48
2022-11-06T09:07:16.568Z,9.58
2022-11-06T09:08:36.270Z,9.65
2022-11-06T09:09:13.826Z,9.60
2022-11-06T09:10:13.753Z,9.55
2022-11-06T09:11:13.800Z,9.56
2022-11-06T09:12:13.754Z,9.58
2022-11-06T09:13:14.080Z,9.60
2022-11-06T09:14:13.819Z,9.77
2022-11-06T09:15:18.734Z,9.49
2022-11-06T09:16:16.280Z,9.62
2022-11-06T09:17:14.800Z,9.92
2022-11-06T09:18:13.658Z,9.60
2022-11-06T09:19:13.747Z,9.60
2022-11-06T09:20:13.677Z,9.88
2022-11-06T09:21:13.690Z,9.75
2022-11-06T09:22:13.716Z,9.83
2022-11-06T09:23:13.908Z,9.71
2022-11-06T09:24:32.292Z,9.65
2022-11-06T09:25:15.342Z,9.59
2022-11-06T09:26:13.730Z,9.45
2022-11-06T09:27:13.645Z,9.19
2022-11-06T09:28:13.593Z,9.22
2022-11-06T09:30:18.290Z,9.24
2022-11-06T09:31:18.311Z,9.44
2022-11-06T09:32:18.394Z,9.81
2022-11-06T09:33:21.448Z,10.04
2022-11-06T09:34:27.613Z,10.47
2022-11-06T09:35:19.203Z,10.49
2022-11-06T09:36:18.546Z,10.42
2022-11-06T09:37:18.191Z,10.14
2022-11-06T09:38:18.208Z,10.02
2022-11-06T09:40:22.449Z,10.14
2022-11-06T09:41:22.212Z,10.69
2022-11-06T09:42:22.205Z,10.68
2022-11-06T09:43:58.360Z,11.05
2022-11-06T09:45:29.319Z,11.87
2022-11-06T09:46:22.411Z,11.69
2022-11-06T09:47:22.150Z,11.60
2022-11-06T09:48:22.114Z,11.33
2022-11-06T09:49:22.174Z,11.17
2022-11-06T09:50:22.114Z,11.38
2022-11-06T09:51:22.085Z,11.64
2022-11-06T09:52:29.717Z,11.85
2022-11-06T09:53:22.096Z,11.97
2022-11-06T09:54:45.729Z,11.98
2022-11-06T09:55:22.062Z,12.41
2022-11-06T09:56:22.028Z,12.04
2022-11-06T09:57:25.021Z,11.54
2022-11-06T09:58:22.474Z,11.48
2022-11-06T09:59:22.084Z,11.39
2022-11-06T10:00:22.175Z,11.24
2022-11-06T10:01:37.072Z,11.31
2022-11-06T10:02:22.174Z,11.53
2022-11-06T10:03:21.961Z,11.31
2022-11-06T10:04:21.942Z,11.19
2022-11-06T10:05:21.936Z,11.35
2022-11-06T10:06:22.009Z,11.67
2022-11-06T10:07:29.377Z,12.07
2022-11-06T10:08:21.934Z,12.38
2022-11-06T10:09:22.825Z,13.25
2022-11-06T10:11:30.628Z,13.21
2022-11-06T10:12:21.881Z,13.35
2022-11-06T10:13:21.856Z,13.27
2022-11-06T10:14:21.875Z,13.38
2022-11-06T10:15:21.941Z,13.53
2022-11-06T10:16:22.423Z,13.69
2022-11-06T10:17:21.861Z,14.19
2022-11-06T10:18:24.744Z,14.42
2022-11-06T10:19:23.002Z,14.36
2022-11-06T10:20:26.847Z,14.20
2022-11-06T10:21:22.893Z,13.75
2022-11-06T10:22:21.779Z,13.81
2022-11-06T10:23:21.733Z,13.17
2022-11-06T10:24:21.778Z,12.74
2022-11-06T10:25:21.754Z,12.67
2022-11-06T10:26:21.731Z,12.25
2022-11-06T10:27:24.772Z,12.38
2022-11-06T10:28:36.253Z,12.43
2022-11-06T10:29:21.747Z,12.56
2022-11-06T10:30:21.903Z,12.34
2022-11-06T10:31:21.736Z,12.13
2022-11-06T10:32:21.647Z,11.69
2022-11-06T10:33:21.701Z,11.49
2022-11-06T10:34:21.803Z,11.56
2022-11-06T10:35:21.653Z,11.44
2022-11-06T10:36:26.810Z,11.41
2022-11-06T10:38:31.915Z,11.36
2022-11-06T10:39:21.560Z,11.24
2022-11-06T10:40:21.635Z,11.27
2022-11-06T10:41:21.559Z,11.28
2022-11-06T10:42:21.750Z,11.46
2022-11-06T10:43:21.722Z,11.64
2022-11-06T10:44:21.506Z,12.05
2022-11-06T10:45:28.249Z,12.74
2022-11-06T10:47:32.474Z,14.09
2022-11-06T10:48:23.792Z,14.54
2022-11-06T10:49:22.625Z,14.66
2022-11-06T10:50:21.451Z,14.41
2022-11-06T10:53:39.151Z,14.41
2022-11-06T10:55:48.971Z,14.74
2022-11-06T10:56:48.963Z,14.49
2022-11-06T10:57:49.816Z,14.74
2022-11-06T10:58:49.664Z,14.85
2022-11-06T10:59:49.118Z,15.01
2022-11-06T11:00:48.840Z,15.07
2022-11-06T11:01:49.317Z,15.00
2022-11-06T11:02:48.692Z,14.45
2022-11-06T11:03:48.657Z,14.52
2022-11-06T11:04:48.930Z,14.27
2022-11-06T11:05:48.645Z,14.17
2022-11-06T11:06:51.398Z,13.93
2022-11-06T11:11:03.958Z,14.35
2022-11-06T11:11:47.309Z,13.87
2022-11-06T11:12:46.312Z,13.43
2022-11-06T11:13:47.623Z,13.27
2022-11-06T11:14:46.639Z,12.89
2022-11-06T11:15:51.598Z,12.67
2022-11-06T11:16:49.132Z,12.51
2022-11-06T11:17:47.321Z,12.16
2022-11-06T11:18:46.241Z,11.88
2022-11-06T11:19:46.197Z,11.53
2022-11-06T11:20:46.212Z,11.45
2022-11-06T11:21:46.244Z,11.11
2022-11-06T11:22:46.912Z,11.13
2022-11-06T11:23:47.151Z,11.23
2022-11-06T11:24:50.942Z,11.31
2022-11-06T11:25:46.219Z,11.11
2022-11-06T11:26:46.187Z,11.26
2022-11-06T11:27:46.145Z,11.42
2022-11-06T11:28:46.094Z,11.48
2022-11-06T11:29:46.135Z,11.54
2022-11-06T11:30:46.089Z,11.87
2022-11-06T11:31:46.155Z,12.31
2022-11-06T11:32:46.132Z,12.59
2022-11-06T11:33:52.685Z,13.09
2022-11-06T11:35:00.591Z,13.28
2022-11-06T11:35:46.099Z,13.48
2022-11-06T11:36:46.118Z,13.68
2022-11-06T11:37:46.085Z,13.36
2022-11-06T11:38:45.986Z,13.69
2022-11-06T11:39:46.524Z,13.75
2022-11-06T11:40:47.573Z,14.16
2022-11-06T11:41:45.963Z,14.23
2022-11-06T11:42:53.592Z,14.20
2022-11-06T11:43:46.007Z,14.26
2022-11-06T11:44:45.927Z,13.99
2022-11-06T11:45:45.913Z,13.84
2022-11-06T11:46:45.925Z,13.80
2022-11-06T11:47:45.882Z,13.81
2022-11-06T11:48:46.644Z,13.73
2022-11-06T11:49:45.861Z,13.38
2022-11-06T11:50:45.853Z,13.25
2022-11-06T11:51:53.053Z,12.84
2022-11-06T11:52:46.967Z,12.95
2022-11-06T11:53:45.995Z,12.61
2022-11-06T11:54:45.848Z,12.44
2022-11-06T11:55:45.805Z,12.54
2022-11-06T11:57:12.777Z,12.74
2022-11-06T11:57:46.797Z,12.73
2022-11-06T11:58:45.821Z,12.84
2022-11-06T11:59:46.113Z,12.95
2022-11-06T12:00:45.800Z,12.84
2022-11-06T12:01:46.021Z,12.49
2022-11-06T12:02:45.777Z,12.38
2022-11-06T12:03:45.728Z,12.29
2022-11-06T12:04:45.737Z,12.41
2022-11-06T12:05:46.532Z,12.13
2022-11-06T12:06:45.759Z,12.12
2022-11-06T12:07:46.600Z,12.15
2022-11-06T12:08:46.780Z,12.07
2022-11-06T12:09:45.756Z,11.94
2022-11-06T12:10:45.656Z,12.03
2022-11-06T12:11:46.053Z,11.82
2022-11-06T12:12:45.683Z,11.85
2022-11-06T12:13:45.649Z,11.85
2022-11-06T12:14:45.613Z,11.79
2022-11-06T12:15:46.616Z,11.87
2022-11-06T12:17:49.479Z,11.93
2022-11-06T12:18:35.758Z,11.77
2022-11-06T12:19:48.006Z,11.90
2022-11-06T12:20:44.079Z,11.96
2022-11-06T12:21:35.725Z,11.93
2022-11-06T12:22:35.781Z,11.90
2022-11-06T12:23:35.712Z,11.82
2022-11-06T12:24:35.775Z,11.85
2022-11-06T12:25:35.824Z,11.74
2022-11-06T12:26:50.433Z,11.60
2022-11-06T12:27:35.723Z,11.66
2022-11-06T12:28:35.666Z,11.63
2022-11-06T12:29:35.684Z,11.75
2022-11-06T12:30:35.628Z,11.77
2022-11-06T12:31:35.633Z,11.82
2022-11-06T12:32:35.705Z,11.81
2022-11-06T12:34:04.511Z,11.77
2022-11-06T12:34:37.457Z,11.97
2022-11-06T12:35:50.455Z,12.00
2022-11-06T12:36:35.577Z,11.98
2022-11-06T12:37:35.607Z,12.04
2022-11-06T12:38:35.553Z,12.04
2022-11-06T12:39:35.533Z,12.03
2022-11-06T12:40:35.543Z,12.08
2022-11-06T12:41:35.554Z,12.11
2022-11-06T12:42:35.544Z,12.04
2022-11-06T12:43:35.718Z,11.88
2022-11-06T12:44:35.482Z,11.84
2022-11-06T12:45:35.634Z,11.63
2022-11-06T12:46:35.458Z,11.59
2022-11-06T12:47:35.497Z,11.56
2022-11-06T12:48:35.494Z,11.57
2022-11-06T12:49:35.446Z,11.49
2022-11-06T12:50:35.407Z,11.56
2022-11-06T12:51:35.947Z,11.59
2022-11-06T12:52:36.952Z,11.54
2022-11-06T12:53:35.428Z,11.48
2022-11-06T12:54:35.370Z,11.35
2022-11-06T12:55:35.400Z,11.46
2022-11-06T12:56:35.384Z,11.23
2022-11-06T12:57:35.437Z,11.24
2022-11-06T12:58:35.322Z,11.26
2022-11-06T12:59:35.348Z,11.26
2022-11-06T13:00:35.745Z,11.17
2022-11-06T13:01:43.318Z,11.23
2022-11-06T13:02:35.424Z,11.21
2022-11-06T13:03:35.287Z,11.03
2022-11-06T13:04:35.260Z,10.99
2022-11-06T13:05:35.248Z,11.02
2022-11-06T13:06:35.313Z,10.91
2022-11-06T13:07:35.339Z,10.76
2022-11-06T13:08:35.237Z,10.70
2022-11-06T13:09:35.216Z,10.69
2022-11-06T13:12:59.999Z,10.66
2022-11-06T13:14:11.348Z,10.78
2022-11-06T13:14:56.864Z,10.80
2022-11-06T13:15:57.816Z,10.70
2022-11-06T13:16:56.952Z,10.58
2022-11-06T13:17:56.579Z,10.52
2022-11-06T13:18:56.569Z,10.49
2022-11-06T13:19:56.611Z,10.47
2022-11-06T13:21:04.663Z,10.47
2022-11-06T13:22:01.802Z,10.54
2022-11-06T13:23:01.353Z,10.42
2022-11-06T13:23:56.508Z,10.46
2022-11-06T13:24:56.505Z,10.34
2022-11-06T13:25:56.461Z,10.42
2022-11-06T13:26:57.269Z,10.39
2022-11-06T13:27:56.636Z,10.52
2022-11-06T13:28:56.513Z,10.60
2022-11-06T13:29:56.489Z,10.76
2022-11-06T13:31:03.292Z,10.84